Portada
METAR-TAF:

METAR-TAF

Aeroports :

Monbetsu, Japó

latitud: 44-15N, longitud: 143-32E, altitud: 6 m

Observació

L'informe es va fer fa 1 hora i 3 minuts, a les 05:00 UTC
Vent 4 kt del Nord/Nord-Est, variant entre Nord/Nord-Oest i Est/Nord-Est
Temperatura 12°C
Humitat 67%
Pressió 1019 hPa
Visibilitat 10 km o més
Núvols disperses a una alçada de 3000 ft
Cel ennuvolat a una alçada de 7000 ft

METAR: RJEB 270500Z 02004KT 340V060 9999 SCT030 BKN070 12/06 Q1019

Hora: 15:03 (06:03 UTC)


TAF: manca

Observacions i pronòstics meteorològics de més de 4000 aeroports (METAR i TAF).

Les estacions disponibles són els punts grocs i vermells al mapa.

Posi el ratolí al punt desitjat per veure el nom de l'estació.

Feu clic per veure les observacions i els pronòstics meteorològics.

Per canviar el mapa: feu clic els botons verds amb una creu de color negre per apropar; al botó verd amb un guió per allunyar la imatge; o en les fletxes verdes per a mapes adjacents.


METAR-TAF: